Oneco, Connecticut
Current Conditions -  °F | °C
As of 12:51 AM on Friday 31 Oct 2014 (Local Time) from KPVD Reporting Station
Clear Clear  
Wind Chill: 42°   Ceiling: Unl
Heat Index: 42°   Visibility: 10mi
Dew Point: 36°   Wind: 0mph
Humidity: 79%   Direction: NA
Pressure: 30"   Gusts: NA
Location:  41.69°N, 71.81°W
Report Text: KPVD 310451Z 00000KT 10SM CLR 06/02 A3000 RMK AO2 SLP158 T00560022 401670050
Loading
Personal Weather Stations






























Interactive Weather Map
Tropical Storm Tracking
New forecast layout! Learn more

10-Day Weather Forecast

Advertisements
Track Severe Weather on mobile